Date,TemperatureHighF,TemperatureAvgF,TemperatureLowF,DewpointHighF,DewpointAvgF,DewpointLowF,HumidityHigh,HumidityAvg,HumidityLow,PressureMaxIn,PressureMinIn,WindSpeedMaxMPH,WindSpeedAvgMPH,GustSpeedMaxMPH,PrecipitationSumIn
2013-1-1,82,72,60,65,62,58,98,74,56,30.06,29.92,21,3,21,0.00
2013-1-2,86,72,59,74,65,58,99,82,51,29.96,29.85,12,2,12,0.00
2013-1-3,89,74,64,76,68,64,99,84,55,30.00,29.88,11,2,11,0.00
2013-1-4,87,72,64,73,69,64,99,91,60,30.11,29.97,14,3,14,0.00
2013-1-5,81,70,66,74,69,65,99,94,74,30.12,30.02,11,3,11,0.01
2013-1-6,88,73,64,76,69,64,99,89,62,30.06,29.92,14,3,14,0.00
2013-1-7,80,72,67,73,70,66,99,95,79,30.04,29.94,16,4,16,0.15
2013-1-8,82,75,70,77,73,70,99,94,76,30.08,29.95,13,4,13,0.46
2013-1-9,84,78,73,75,74,72,99,88,72,30.15,30.03,17,6,17,0.09
2013-1-10,82,77,74,72,69,64,86,76,58,30.17,30.06,23,8,23,0.00
2013-1-11,80,75,72,73,70,67,96,84,71,30.14,30.03,19,6,19,0.05
2013-1-12,83,76,70,70,68,66,90,78,65,30.06,29.96,15,5,15,0.00
2013-1-13,85,76,72,71,67,63,86,76,63,30.00,29.94,15,5,15,0.00
2013-1-14,84,75,65,72,67,63,97,78,61,30.04,29.99,14,4,14,0.00
2013-1-15,80,74,70,71,68,65,89,82,74,30.01,29.94,15,4,15,0.00
2013-1-17,63,62,61,59,57,55,88,86,82,29.96,29.94,12,5,12,0.12
2013-1-18,75,64,51,60,54,47,88,73,57,30.10,29.95,18,7,18,0.00
2013-1-19,76,70,66,71,65,59,99,87,69,30.09,29.97,11,3,11,0.12
2013-1-20,83,71,63,74,67,62,99,89,66,30.01,29.88,11,3,11,0.00
2013-1-21,83,71,65,75,69,65,99,93,68,29.94,29.82,11,2,11,0.91
2013-1-22,76,68,61,65,60,53,99,77,60,30.09,29.86,23,7,23,0.00
2013-1-23,77,66,60,62,57,53,87,73,51,30.17,30.07,15,5,15,0.00
2013-1-24,79,65,55,57,53,43,94,68,41,30.17,30.07,15,4,15,0.00
2013-1-25,79,65,54,62,57,52,99,77,54,30.16,30.05,13,3,13,0.00
2013-1-26,81,66,57,61,58,52,99,77,46,30.14,30.03,15,3,15,0.00
2013-1-27,60,58,58,59,58,57,99,99,99,30.10,30.07,3,1,3,0.00
2013-1-28,83,77,73,70,67,65,90,74,61,30.20,30.10,17,7,17,0.00
2013-1-29,81,74,71,73,71,69,98,89,71,30.11,29.99,16,5,16,0.02
2013-1-30,84,77,71,70,68,66,95,75,61,29.97,29.83,21,7,21,0.00
2013-1-31,71,65,55,71,59,41,99,82,54,30.06,29.81,21,4,21,0.06
2013-2-1,73,61,50,58,49,39,83,66,56,30.15,30.04,22,7,22,0.00
2013-2-2,78,62,53,55,49,38,93,64,44,30.13,29.99,13,3,13,0.00
2013-2-3,56,54,52,55,53,51,99,96,89,29.99,29.94,8,1,8,0.00
2013-2-4,80,72,48,53,46,38,87,45,28,30.01,29.89,16,5,16,0.00
2013-2-5,79,72,52,71,62,52,99,74,50,29.95,29.92,6,2,6,0.00
2013-2-6,85,75,64,73,65,60,99,72,57,29.98,29.91,14,5,14,0.00
2013-2-7,84,74,64,70,66,61,95,78,56,29.95,29.80,14,4,14,0.00
2013-2-8,87,74,65,72,67,60,99,83,43,29.91,29.77,15,4,15,0.00
2013-2-9,81,71,62,69,64,60,99,80,59,30.04,29.89,17,6,17,0.00
2013-2-10,77,72,69,65,63,60,86,72,63,30.14,30.02,21,8,21,0.00
2013-2-11,82,74,67,67,64,61,87,74,59,30.09,29.97,15,5,15,0.00
2013-2-12,89,74,62,74,67,61,99,81,47,29.99,29.83,15,4,15,0.00
2013-2-13,91,77,67,73,69,66,99,79,53,29.87,29.74,21,5,21,0.00
2013-2-14,79,68,63,75,67,62,99,97,83,29.89,29.74,23,5,23,1.49
2013-2-15,76,66,63,72,66,62,99,98,85,29.90,29.80,13,3,13,0.14
2013-2-16,76,65,53,65,57,43,99,78,47,29.95,29.74,21,6,21,0.00
2013-2-17,60,51,43,43,29,16,70,48,24,30.18,29.95,26,8,26,0.00
2013-2-18,71,59,45,56,45,31,70,60,48,30.20,30.08,21,7,21,0.00
2013-2-19,85,72,56,66,60,52,94,68,55,30.08,29.96,16,5,16,0.00
2013-2-20,81,73,64,69,65,63,99,79,59,29.99,29.88,12,4,12,0.01
2013-2-21,84,72,61,78,66,61,99,84,60,29.97,29.87,13,4,13,0.00
2013-2-22,86,77,70,74,71,67,95,82,67,29.97,29.88,18,6,18,0.00
2013-2-23,88,79,72,74,72,69,94,80,60,29.91,29.77,15,6,15,0.00
2013-2-24,93,82,71,76,71,65,99,74,45,29.87,29.75,17,5,17,0.00
2013-2-25,88,76,67,77,72,67,99,90,64,29.79,29.68,17,4,17,0.60
2013-2-26,90,80,73,77,73,69,99,81,54,29.75,29.65,23,7,23,0.00
2013-2-27,76,70,63,75,66,61,99,88,65,29.83,29.72,14,4,14,0.28
2013-2-28,77,64,58,64,55,49,99,74,42,29.87,29.76,14,3,14,0.00
2013-3-1,67,61,57,57,51,46,87,70,56,29.86,29.76,13,3,13,0.00
2013-3-2,69,58,49,49,42,36,83,58,40,29.90,29.82,25,6,25,0.00
2013-3-3,52,50,46,43,38,36,82,65,58,29.90,29.83,13,5,13,0.00
2013-3-4,50,50,50,36,36,36,59,59,59,29.90,29.90,6,6,11,0.00
2013-3-5,50,50,50,36,36,36,59,59,59,29.90,29.90,6,6,11,0.00
2013-3-6,79,62,50,66,44,27,95,56,27,29.97,29.81,20,8,20,0.00
2013-3-7,72,58,47,56,46,36,97,67,41,30.05,29.94,14,5,19,0.00
2013-3-8,77,62,50,55,51,39,99,73,31,30.08,29.97,14,4,14,0.00
2013-3-9,77,65,51,58,54,50,99,71,51,30.06,29.96,17,5,17,0.00
2013-3-10,77,71,66,61,57,53,75,62,51,30.04,29.94,16,7,18,0.00
2013-3-11,82,72,68,64,61,58,79,68,51,29.99,29.82,19,7,19,0.00
2013-3-12,84,75,68,71,66,62,89,76,65,29.86,29.77,17,6,17,0.00
2013-3-13,70,63,56,67,60,55,99,92,87,29.92,29.84,14,4,14,0.00
2013-3-14,70,63,53,51,46,40,84,58,36,30.08,30.01,22,8,22,0.00
2013-3-15,73,62,50,54,50,45,89,69,43,30.12,30.02,15,5,15,0.00
2013-3-16,79,64,50,67,54,50,99,72,41,30.07,29.95,15,3,15,0.00
2013-3-17,80,68,55,62,58,52,99,75,53,30.02,29.90,16,4,16,0.00
2013-3-18,85,73,65,71,66,61,99,80,61,29.95,29.82,18,5,18,0.71
2013-3-22,78,66,52,68,60,52,99,83,56,29.87,29.81,8,2,8,0.00
2013-3-23,93,83,74,77,73,70,99,74,53,29.83,29.65,16,5,16,0.00
2013-3-24,91,79,71,77,72,65,99,82,53,29.76,29.53,32,9,32,0.38
2013-3-25,84,74,61,74,58,37,99,66,26,29.86,29.60,15,4,15,0.01
2013-3-26,71,60,51,43,36,24,65,44,24,30.09,29.85,21,8,21,0.00
2013-3-27,70,56,45,47,41,32,84,59,34,30.12,30.04,16,6,16,0.00
2013-3-28,73,59,47,52,46,39,89,64,34,30.14,30.04,17,4,17,0.00
2013-3-29,77,64,51,54,50,44,86,64,42,30.16,30.07,19,4,19,0.00
2013-3-30,78,67,52,63,53,47,99,66,39,30.14,30.03,16,3,16,0.00
2013-3-31,68,63,57,56,55,54,97,77,67,30.06,29.99,9,2,9,0.00
2013-4-2,86,80,66,72,65,62,99,62,49,29.94,29.90,15,9,15,0.00
2013-4-3,83,83,83,64,64,64,54,54,54,29.91,29.91,11,11,12,0.00
2013-4-4,83,83,83,64,64,64,54,54,54,29.91,29.91,11,11,12,0.00
2013-4-9,84,79,74,70,68,66,79,70,63,30.03,29.96,17,9,17,0.01
2013-4-10,85,81,73,74,72,69,88,75,67,29.96,29.87,17,8,17,0.00
2013-4-12,90,82,73,80,76,72,99,82,65,29.81,29.71,21,6,21,0.39
2013-4-13,90,78,72,80,74,68,99,88,54,29.84,29.74,19,3,19,0.05
2013-4-14,90,80,71,79,74,70,99,85,63,29.84,29.76,17,5,17,0.00
2013-4-15,98,78,70,78,73,69,99,86,51,29.92,29.79,27,4,27,0.97
2013-4-16,88,78,69,80,73,69,99,87,70,30.00,29.89,17,6,17,0.01
2013-4-17,86,78,70,72,69,63,95,74,51,29.99,29.89,15,6,15,0.00
2013-4-19,91,84,77,76,73,69,90,70,54,29.92,29.82,20,8,20,0.01
2013-4-20,93,78,72,80,74,71,99,88,57,29.96,29.84,22,5,22,0.05
2013-4-21,88,78,71,77,73,69,99,84,62,29.97,29.85,16,5,16,0.00
2013-4-22,87,76,69,73,71,68,99,87,59,29.91,29.81,17,4,17,0.11
2013-4-23,84,76,67,70,66,61,99,75,56,29.96,29.82,22,8,22,0.00
2013-4-24,86,78,70,67,64,60,78,63,50,30.01,29.90,17,5,17,0.00
2013-4-25,85,77,70,66,62,60,79,62,48,30.08,29.94,17,5,17,0.00
2013-4-26,84,76,64,70,65,61,94,69,54,30.09,29.99,17,6,17,0.00
2013-4-27,83,78,73,67,65,62,74,65,54,30.09,29.96,23,8,23,0.00
2013-4-28,84,82,80,66,64,60,64,55,48,29.98,29.89,18,10,18,0.00
2013-4-29,88,81,77,72,70,66,84,70,52,29.90,29.80,17,7,17,0.00
2013-4-30,88,75,70,79,72,69,99,92,64,29.86,29.78,14,2,14,0.86
2013-5-1,87,74,68,76,71,68,99,92,65,29.87,29.78,18,3,18,0.30
2013-5-2,79,73,68,78,72,68,99,98,88,29.83,29.67,21,6,21,1.43
2013-5-3,91,78,69,75,71,67,99,82,49,29.69,29.54,16,6,16,0.04
2013-5-6,88,78,60,68,64,60,99,63,45,29.87,29.78,15,4,15,0.00
2013-5-7,68,64,60,64,59,56,89,84,79,29.89,29.83,8,2,8,0.00
2013-5-9,91,83,72,74,71,66,88,68,48,30.00,29.93,11,4,11,0.00
2013-5-10,92,81,71,81,73,69,99,79,50,30.00,29.88,18,4,18,0.00
2013-5-11,92,81,71,82,74,70,99,82,58,29.95,29.83,21,4,21,0.53
2013-5-12,95,80,70,81,74,70,99,85,51,29.93,29.80,27,4,27,0.11
2013-5-13,91,79,70,76,70,64,99,77,47,29.96,29.85,15,4,15,0.01
2013-5-14,83,76,71,66,60,55,79,59,44,30.05,29.93,20,6,20,0.00
2013-5-15,84,77,67,66,61,55,79,59,48,30.07,29.96,18,6,18,0.00
2013-5-16,86,81,74,67,64,61,75,59,49,29.99,29.91,16,6,16,0.00
2013-5-17,84,76,68,78,71,63,99,85,67,29.96,29.88,22,5,22,1.42
2013-5-18,89,79,70,82,73,70,99,82,63,29.98,29.90,14,4,14,0.00
2013-5-19,90,81,70,78,71,68,99,74,55,29.97,29.87,15,4,15,0.00
2013-5-20,82,76,71,75,73,70,99,89,78,29.96,29.86,18,3,18,2.02
2013-5-21,88,80,70,77,73,70,99,80,61,29.91,29.80,18,6,18,0.26
2013-5-22,92,80,73,77,73,71,99,83,60,29.84,29.76,16,3,16,0.01
2013-5-23,95,82,74,78,74,68,99,80,46,29.87,29.76,14,4,14,0.00
2013-5-24,92,83,72,80,72,60,99,73,40,29.93,29.81,17,4,17,0.00
2013-5-25,86,80,76,75,68,64,93,69,54,30.04,29.91,21,8,21,0.00
2013-5-26,86,79,68,69,65,61,92,65,52,30.05,29.97,18,7,18,0.00
2013-5-27,86,80,74,72,69,62,81,71,61,30.03,29.94,19,8,19,0.00
2013-5-28,85,79,73,77,74,71,99,85,69,29.99,29.91,23,8,23,0.18
2013-5-29,82,76,70,78,74,70,99,92,76,29.97,29.88,21,7,21,2.73
2013-5-30,84,78,73,77,73,69,99,84,66,29.95,29.87,26,10,26,0.24
2013-5-31,85,82,76,76,75,71,94,80,74,29.94,29.88,22,10,22,0.01
2013-6-1,84,84,84,76,76,76,76,76,76,29.93,29.93,11,11,15,0.01
2013-6-2,84,82,75,78,76,74,99,82,76,29.93,29.78,15,8,15,0.65
2013-6-3,94,79,72,82,75,72,99,89,56,29.90,29.77,17,2,17,0.81
2013-6-4,89,79,74,81,76,74,99,92,67,29.92,29.81,8,2,8,0.13
2013-6-5,85,81,79,80,78,75,94,88,79,29.88,29.76,13,4,13,0.04
2013-6-6,92,80,73,83,78,73,99,93,69,29.78,29.62,36,7,36,1.91
2013-6-7,94,80,73,80,76,73,99,88,61,29.85,29.75,17,5,17,0.83
2013-6-8,89,78,74,83,77,73,99,95,73,29.99,29.83,10,2,10,1.05
2013-6-9,91,83,75,80,76,74,99,83,62,30.00,29.90,17,5,17,0.51
2013-6-10,92,84,80,79,77,74,91,79,64,29.96,29.88,13,5,13,0.00
2013-6-11,95,85,78,81,77,74,98,80,58,29.96,29.87,13,4,17,0.00
2013-6-12,93,82,76,84,77,73,99,86,62,29.94,29.88,15,2,15,0.00
2013-6-13,94,80,75,84,76,74,99,90,59,29.91,29.86,11,2,11,0.00
2013-6-18,95,89,80,82,76,74,99,68,56,29.94,29.84,14,6,14,0.00
2013-6-19,82,79,78,78,77,76,99,93,83,29.91,29.86,8,1,8,0.00
2013-6-21,95,88,80,84,74,72,99,65,52,29.98,29.92,15,6,15,0.00
2013-6-22,93,84,76,80,74,71,95,73,56,29.97,29.90,16,5,16,0.00
2013-6-23,93,84,79,79,75,72,88,74,60,30.00,29.91,17,6,17,0.06
2013-6-24,91,85,80,77,74,72,81,71,57,30.04,29.95,21,6,21,0.01
2013-6-25,91,84,80,78,75,72,86,75,62,30.01,29.91,16,6,16,0.00
2013-6-26,94,85,76,84,76,72,99,77,54,29.95,29.87,15,4,15,0.15
2013-6-27,92,82,75,81,76,70,99,81,63,29.94,29.82,13,2,13,0.00
2013-6-28,97,84,75,87,76,72,99,82,48,29.86,29.75,15,2,15,0.20
2013-6-30,98,80,72,82,76,71,99,90,51,29.82,29.73,23,4,23,0.86
2013-7-1,94,83,75,83,77,72,99,84,58,29.88,29.78,21,5,21,0.00
2013-7-2,92,84,75,81,77,72,93,78,67,29.98,29.88,17,5,17,0.01
2013-7-3,93,82,75,82,77,73,99,84,64,30.00,29.91,21,5,21,0.13
2013-7-4,91,84,80,80,77,75,90,79,65,30.02,29.94,19,7,19,0.01
2013-7-5,89,83,74,80,76,73,99,81,65,30.01,29.92,21,7,21,0.18
2013-7-6,91,84,80,77,75,72,83,75,63,29.99,29.90,19,7,19,0.00
2013-7-7,90,84,80,78,75,73,86,75,61,29.97,29.89,21,7,21,0.00
2013-7-8,92,84,78,78,74,70,89,74,55,30.02,29.94,16,5,16,0.01
2013-7-9,90,81,74,79,74,70,99,83,57,30.02,29.91,18,3,18,0.27
2013-7-10,91,80,72,79,75,71,99,86,60,29.96,29.86,13,3,13,0.09
2013-7-11,95,86,76,80,75,70,97,73,54,29.88,29.81,15,4,15,0.00
2013-7-12,95,80,75,87,77,74,99,91,57,29.83,29.78,10,1,10,0.00
2013-7-13,91,78,73,80,76,72,99,94,67,29.89,29.82,13,3,13,0.66
2013-7-14,94,79,72,81,74,72,99,89,57,29.97,29.85,17,3,17,0.09
2013-7-15,90,79,73,82,75,71,99,87,63,29.97,29.88,15,3,15,0.37
2013-7-16,87,79,73,78,75,72,99,87,67,30.04,29.92,23,6,23,0.22
2013-7-17,85,80,74,78,75,70,98,85,76,30.01,29.91,15,4,15,0.07
2013-7-18,91,78,72,82,74,72,99,91,61,30.00,29.92,21,3,21,0.40
2013-7-19,92,82,73,83,76,73,99,86,65,30.00,29.91,14,4,14,0.00
2013-7-20,97,84,78,82,78,73,96,83,58,29.99,29.90,17,4,17,0.00
2013-7-21,94,82,74,81,77,71,99,87,61,30.03,29.91,17,3,17,0.02
2013-7-22,98,85,74,83,76,72,99,78,49,30.01,29.93,14,3,14,0.00
2013-7-23,99,86,77,81,76,70,99,77,43,29.97,29.83,13,4,13,0.00
2013-7-24,98,86,76,80,74,63,99,72,38,29.88,29.77,20,5,20,0.00
2013-7-25,98,86,76,78,75,72,95,74,49,29.87,29.78,19,5,19,0.00
2013-7-26,98,85,79,79,76,71,91,78,46,29.89,29.80,18,5,18,0.00
2013-7-27,98,80,74,82,77,72,99,90,53,29.88,29.79,12,2,12,0.80
2013-7-28,93,80,73,82,77,73,99,91,65,29.95,29.81,13,2,13,1.02
2013-7-29,94,82,74,82,76,74,99,85,59,30.01,29.88,15,3,15,0.00
2013-7-30,93,85,77,83,78,73,92,80,62,30.04,29.94,15,4,15,0.13
2013-7-31,94,86,78,80,76,74,97,76,57,29.99,29.88,17,5,17,0.00
2013-8-1,92,85,77,77,74,72,91,73,57,29.93,29.81,18,5,18,0.01
2013-8-2,94,80,72,82,75,68,99,85,52,29.92,29.78,22,2,22,0.28
2013-8-3,88,78,75,82,76,72,99,93,74,29.99,29.89,16,2,16,0.13
2013-8-4,101,81,73,83,76,73,99,87,47,29.97,29.84,27,2,27,0.57
2013-8-5,95,82,75,86,77,72,99,86,58,29.90,29.80,15,3,15,0.00
2013-8-6,98,84,75,82,77,74,99,81,55,29.84,29.76,11,2,11,0.00
2013-8-7,96,85,76,86,76,72,99,78,52,29.86,29.76,15,4,15,0.00
2013-8-8,94,86,79,79,76,73,94,74,57,29.89,29.80,21,6,21,0.04
2013-8-9,93,85,81,78,74,71,87,72,57,29.94,29.82,17,5,17,0.01
2013-8-10,85,81,79,77,76,74,90,86,80,29.93,29.90,9,2,9,0.00
2013-8-12,92,88,82,78,75,71,82,68,57,29.96,29.88,15,6,15,0.00
2013-8-13,95,86,77,85,76,73,99,74,54,29.92,29.82,15,4,15,0.00
2013-8-14,97,86,75,85,76,71,99,75,51,29.90,29.80,14,3,14,0.00
2013-8-15,96,87,80,79,76,74,89,71,53,29.93,29.82,11,4,11,0.00
2013-8-16,95,85,76,83,77,73,97,79,57,29.92,29.84,21,4,21,0.05
2013-8-17,95,87,82,81,78,74,89,76,57,29.95,29.86,15,5,15,0.00
2013-8-18,93,86,80,79,77,73,90,77,60,29.95,29.86,20,6,20,0.00
2013-8-19,94,86,79,80,77,74,90,76,59,29.94,29.83,17,5,17,0.00
2013-8-20,93,85,78,79,77,73,99,79,58,29.94,29.85,19,5,19,0.17
2013-8-21,90,83,77,80,78,73,99,86,69,29.95,29.86,19,6,19,0.35
2013-8-22,93,85,77,81,78,74,97,79,64,29.94,29.83,16,5,16,0.00
2013-8-23,94,84,77,83,77,74,99,80,59,29.89,29.80,17,3,17,0.00
2013-8-24,94,84,77,83,76,72,99,81,56,29.95,29.84,15,3,15,0.25
2013-8-26,94,84,74,78,75,72,99,77,56,29.96,29.88,16,4,16,0.00
2013-8-27,89,79,73,79,74,70,99,86,62,29.93,29.83,13,2,13,0.32
2013-8-28,90,81,74,80,75,72,99,83,62,29.91,29.82,16,3,16,0.57
2013-8-29,94,83,73,80,75,72,99,79,56,29.90,29.79,14,4,15,0.00
2013-8-30,97,86,76,83,75,69,99,74,46,29.87,29.76,15,3,15,0.00
2013-8-31,96,83,76,79,74,71,95,77,47,29.85,29.77,10,2,10,0.00
2013-9-1,80,77,76,77,76,74,99,95,86,29.87,29.82,2,0,2,0.00
2013-9-2,98,80,73,84,76,71,99,90,48,29.90,29.80,25,2,25,0.41
2013-9-3,97,83,72,86,74,70,99,80,48,29.89,29.80,11,2,11,0.00
2013-9-4,92,83,77,86,78,75,99,85,62,29.94,29.82,15,2,15,0.07
2013-9-5,95,86,79,80,78,74,99,79,58,29.94,29.86,13,4,13,0.01
2013-9-6,95,86,78,84,78,74,99,79,55,29.91,29.79,17,4,17,0.01
2013-9-7,93,79,73,83,75,73,99,91,59,29.85,29.76,14,2,14,2.65
2013-9-8,93,81,73,83,75,72,99,84,52,29.82,29.72,12,2,12,0.00
2013-9-9,92,82,74,81,75,73,99,83,59,29.88,29.76,20,4,20,0.31
2013-9-10,91,81,75,80,75,70,99,83,66,29.92,29.82,22,5,22,0.40
2013-9-11,82,80,78,76,75,74,89,84,81,29.90,29.84,10,3,10,0.05
2013-9-12,87,81,76,79,77,75,99,89,73,29.87,29.76,9,2,9,0.07
2013-9-13,94,82,73,84,76,73,99,83,56,29.78,29.67,11,3,11,0.13
2013-9-14,97,85,75,82,75,72,99,77,50,29.84,29.68,12,3,12,0.00
2013-9-15,91,82,75,80,77,73,99,86,72,29.94,29.77,19,3,19,0.51
2013-9-16,91,80,75,81,78,73,99,93,71,29.92,29.83,33,6,33,0.64
2013-9-17,81,78,74,79,76,73,99,95,86,29.92,29.79,15,4,15,0.53
2013-9-18,91,80,74,80,75,72,99,87,65,29.88,29.78,17,3,17,0.58
2013-9-19,89,80,74,82,75,71,99,86,67,29.87,29.79,22,5,22,0.07
2013-9-20,89,81,71,75,71,67,98,72,53,29.87,29.76,19,5,19,0.00
2013-9-21,94,82,71,78,72,69,99,73,48,29.79,29.64,13,3,13,0.00
2013-9-22,98,84,74,81,75,72,99,78,47,29.73,29.62,14,3,14,0.00
2013-9-23,95,82,76,86,78,75,99,88,63,29.85,29.71,12,2,12,0.57
2013-9-24,78,76,75,78,76,74,99,99,99,29.84,29.78,12,2,12,0.38
2013-9-25,93,84,74,81,75,71,99,77,53,29.76,29.64,21,5,21,0.01
2013-9-26,94,81,75,82,78,74,99,91,64,29.72,29.64,29,5,29,0.22
2013-9-27,90,81,73,81,74,68,99,81,53,29.78,29.67,13,4,13,0.00
2013-9-28,89,80,73,81,74,70,99,83,60,29.83,29.73,24,5,24,0.32
2013-9-29,91,81,70,80,71,69,99,75,54,29.83,29.74,12,3,12,0.00
2013-9-30,90,75,71,80,72,70,99,93,56,29.83,29.77,5,0,5,0.00
2013-10-3,90,84,76,74,72,69,90,68,57,29.93,29.85,14,5,14,0.00
2013-10-4,90,81,73,79,72,68,99,76,51,29.93,29.85,13,3,13,0.00
2013-10-5,91,80,70,80,72,69,99,79,54,29.90,29.80,14,4,14,0.00
2013-10-6,91,82,74,80,74,72,99,79,60,29.83,29.73,12,3,12,0.07
2013-10-7,95,79,72,79,73,71,99,86,51,29.76,29.66,17,3,17,0.98
2013-10-8,94,82,74,81,74,70,99,81,53,29.79,29.70,15,4,15,0.01
2013-10-9,86,78,70,78,74,69,99,90,74,29.84,29.75,17,5,17,0.00
2013-10-10,88,83,71,76,73,70,99,73,56,29.88,29.81,19,7,19,0.00
2013-10-11,88,80,68,76,68,64,99,67,52,29.88,29.80,15,4,15,0.00
2013-10-12,71,70,68,67,66,66,96,90,84,29.83,29.81,0,0,0,0.00
2013-10-13,87,77,69,73,67,63,99,74,46,29.91,29.82,12,3,12,0.00
2013-10-14,89,78,69,74,69,66,99,77,50,29.86,29.76,14,3,14,0.00
2013-10-15,88,81,70,75,70,69,99,73,54,29.81,29.73,13,4,13,0.00
2013-10-16,78,74,70,70,69,68,92,83,76,29.79,29.75,4,1,4,0.00
2013-10-17,90,83,70,77,72,69,99,71,55,29.83,29.75,11,4,11,0.00
2013-10-18,92,81,71,81,73,70,99,79,57,29.84,29.75,13,3,13,0.00
2013-10-19,93,84,75,80,73,70,97,72,50,29.82,29.73,13,4,13,0.00
2013-10-20,96,83,74,80,75,72,99,79,49,29.82,29.73,10,3,10,0.00
2013-10-21,95,83,74,85,76,73,99,80,57,29.86,29.76,11,3,11,0.00
2013-10-22,98,84,75,80,76,72,99,78,47,29.81,29.68,14,3,14,0.00
2013-10-23,92,80,73,77,73,67,97,80,57,29.81,29.67,15,4,15,0.00
2013-10-24,83,76,70,69,65,61,88,69,55,29.95,29.80,17,5,17,0.00
2013-10-25,84,76,67,67,64,60,89,67,51,30.01,29.93,19,5,19,0.00
2013-10-26,86,74,64,68,63,59,96,70,47,30.01,29.91,14,3,14,0.00
2013-10-27,81,67,62,67,62,59,94,84,64,29.95,29.88,12,2,12,0.00
2013-10-28,87,78,63,72,66,63,99,67,47,30.00,29.91,14,4,14,0.00
2013-10-29,87,77,65,74,66,63,99,71,53,30.03,29.94,21,6,21,0.01
2013-10-30,86,80,76,69,66,65,72,64,53,30.06,29.94,19,8,19,0.00
2013-10-31,88,81,77,73,70,64,85,69,55,29.98,29.86,19,6,19,0.00
2013-11-1,91,82,71,78,73,70,98,76,55,29.87,29.74,14,4,14,0.00
2013-11-2,94,80,70,77,70,62,99,75,42,29.79,29.66,15,4,15,0.00
2013-11-3,82,75,68,66,62,59,85,67,50,29.88,29.74,25,8,25,0.00
2013-11-4,77,75,70,60,58,56,60,56,53,29.89,29.87,19,8,19,0.00
2013-11-5,85,80,77,70,69,62,78,69,60,29.95,29.88,24,13,24,0.00
2013-11-6,86,79,70,70,68,65,90,69,54,29.93,29.86,22,7,22,0.00
2013-11-7,87,76,69,77,70,66,99,84,59,29.87,29.78,13,3,13,0.00
2013-11-8,85,76,70,75,72,68,99,88,62,29.90,29.79,22,7,22,0.12
2013-11-9,80,77,75,73,71,70,92,82,76,30.00,29.88,27,11,27,0.05
2013-11-10,86,80,77,74,70,67,80,73,60,30.00,29.91,16,6,16,0.00
2013-11-11,82,73,69,73,68,66,97,84,72,29.98,29.91,16,2,16,0.00
2013-11-12,86,77,68,71,68,65,99,74,52,29.94,29.83,9,3,9,0.00
2013-11-13,76,72,69,68,62,52,95,71,54,30.08,29.85,19,11,19,0.06
2013-11-14,76,73,69,59,56,53,61,57,51,30.11,30.00,19,12,19,0.00
2013-11-15,81,77,73,67,64,59,71,66,60,30.01,29.90,16,9,16,0.00
2013-11-16,83,76,72,73,71,67,97,84,64,29.95,29.88,13,4,13,0.17
2013-11-17,87,80,73,74,72,68,93,77,60,29.94,29.86,16,5,16,0.00
2013-11-18,91,77,70,79,72,70,99,86,56,29.88,29.77,8,2,9,0.04
2013-11-19,91,78,71,77,72,70,99,83,53,29.80,29.71,14,3,14,0.05
2013-11-20,78,78,78,71,71,71,79,79,79,29.92,29.77,3,3,8,0.00
2013-11-21,78,13,0,71,71,71,79,13,79,30.01,29.90,3,0,8,0.00
2013-11-22,80,24,0,71,71,68,72,22,68,30.02,29.93,14,3,14,0.00
2013-11-23,78,78,78,69,69,69,72,72,72,29.93,29.93,8,8,11,0.00
2013-11-24,78,78,78,69,69,69,72,72,72,29.93,29.93,8,8,11,0.00
2013-11-25,78,75,71,69,67,61,83,74,64,30.05,29.89,24,11,24,0.08
2013-11-26,86,78,73,75,72,68,91,82,67,29.89,29.65,23,8,23,0.04
2013-11-27,79,71,56,76,65,50,99,81,52,29.96,29.61,20,7,20,0.54
2013-11-28,76,58,46,58,50,44,93,77,45,30.07,29.95,15,6,15,0.00
2013-11-29,79,70,57,64,58,55,96,67,47,30.11,30.03,19,7,19,0.00
2013-11-30,77,73,61,71,64,58,99,74,59,30.05,29.94,24,7,24,0.56
2013-12-1,75,68,61,73,67,59,99,97,73,29.95,29.77,11,2,11,0.71
2013-12-2,72,66,60,68,65,59,99,95,78,29.77,29.66,11,2,11,0.19
2013-12-3,84,70,59,70,63,58,99,81,48,29.84,29.73,10,2,10,0.00
2013-12-4,90,72,63,74,65,63,99,81,49,29.93,29.83,11,2,11,0.00
2013-12-5,84,72,63,79,68,63,99,88,64,30.01,29.92,14,2,14,0.12
2013-12-6,86,77,66,72,68,65,96,76,55,30.03,29.93,17,4,17,0.00
2013-12-7,85,72,64,76,69,64,99,93,66,30.06,29.99,11,2,11,0.07
2013-12-8,85,78,74,74,70,67,90,76,59,30.05,29.96,14,4,14,0.00
2013-12-9,87,78,68,70,67,62,95,71,47,30.03,29.94,16,4,16,0.00
2013-12-10,88,76,68,77,70,67,99,84,57,30.00,29.92,12,2,12,0.00
2013-12-11,69,68,67,69,68,67,99,99,98,29.98,29.96,2,0,2,0.00
2013-12-12,78,72,68,71,65,56,99,81,61,30.06,29.97,18,7,18,0.00
2013-12-13,74,73,73,63,63,62,72,71,68,29.97,29.96,17,10,17,0.00
2013-12-14,85,79,73,72,71,67,93,78,64,29.95,29.82,16,6,16,0.02
2013-12-15,83,75,70,76,72,66,99,91,76,29.91,29.76,15,4,15,0.06
2013-12-16,77,67,59,67,61,58,95,81,62,30.00,29.88,14,5,14,0.00
2013-12-17,79,66,57,65,58,55,99,79,50,30.03,29.94,17,4,17,0.00
2013-12-18,78,65,57,60,57,54,99,78,48,30.08,29.98,18,4,18,0.00
2013-12-19,80,68,53,67,58,53,99,74,51,30.09,30.00,17,4,17,0.00
2013-12-20,84,76,71,70,66,60,83,70,59,30.04,29.95,15,5,15,0.00
2013-12-21,85,79,75,73,71,68,85,77,64,29.99,29.92,19,6,19,0.00